createdAt,value
2017-09-20T00:02:03.878Z,100993.77
2017-09-20T00:04:35.000Z,101005.12
2017-09-20T00:07:06.270Z,101006.91
2017-09-20T00:09:37.375Z,101000.27
2017-09-20T00:12:08.803Z,101004.66
2017-09-20T00:14:40.166Z,101002.69
2017-09-20T00:17:11.220Z,101000.24
2017-09-20T00:19:42.678Z,101006.84
2017-09-20T00:23:16.375Z,101007.25
2017-09-20T00:25:47.692Z,101003.51
2017-09-20T00:28:19.056Z,100998.39
2017-09-20T00:30:50.267Z,101008.62
2017-09-20T00:33:21.350Z,100995.94
2017-09-20T00:35:52.787Z,100994.69
2017-09-20T00:38:23.877Z,101001.48
2017-09-20T00:40:55.045Z,101005.14
2017-09-20T00:43:26.268Z,101008.71
2017-09-20T00:45:57.713Z,101012.44
2017-09-20T00:48:29.407Z,101015.51
2017-09-20T00:51:02.260Z,101020.20
2017-09-20T00:53:33.318Z,101017.16
2017-09-20T00:56:05.405Z,101012.34
2017-09-20T00:58:37.983Z,101017.72
2017-09-20T01:01:09.374Z,101011.67
2017-09-20T01:03:40.471Z,101016.19
2017-09-20T01:06:11.614Z,101008.52
2017-09-20T01:08:43.062Z,101007.36
2017-09-20T01:11:14.297Z,101020.10
2017-09-20T01:13:45.655Z,101009.97
2017-09-20T01:16:16.822Z,101009.08
2017-09-20T01:18:47.898Z,101013.93
2017-09-20T01:23:30.711Z,101016.14
2017-09-20T01:26:02.708Z,101023.20
2017-09-20T01:28:34.134Z,101018.30
2017-09-20T01:31:05.286Z,101014.33
2017-09-20T01:33:36.612Z,101022.25
2017-09-20T01:36:07.707Z,101027.41
2017-09-20T01:38:39.084Z,101021.85
2017-09-20T01:41:10.201Z,101020.56
2017-09-20T01:43:41.549Z,101028.64
2017-09-20T01:46:12.621Z,101025.58
2017-09-20T01:48:43.969Z,101029.31
2017-09-20T01:51:15.461Z,101032.33
2017-09-20T01:53:47.727Z,101032.42
2017-09-20T01:56:18.810Z,101031.62
2017-09-20T01:58:50.605Z,101036.60
2017-09-20T02:01:21.708Z,101032.64
2017-09-20T02:03:52.800Z,101029.47
2017-09-20T02:06:24.263Z,101034.69
2017-09-20T02:08:55.368Z,101036.81
2017-09-20T02:11:26.492Z,101032.84
2017-09-20T02:13:57.795Z,101030.64
2017-09-20T02:16:29.178Z,101034.17
2017-09-20T02:19:00.247Z,101040.86
2017-09-20T02:21:31.320Z,101040.34
2017-09-20T02:24:03.211Z,101036.21
2017-09-20T02:26:34.588Z,101037.66
2017-09-20T02:29:05.773Z,101042.17
2017-09-20T02:31:36.857Z,101040.15
2017-09-20T02:34:07.950Z,101042.08
2017-09-20T02:36:39.419Z,101042.42
2017-09-20T02:39:10.672Z,101045.31
2017-09-20T02:41:41.795Z,101046.05
2017-09-20T02:44:12.949Z,101043.98
2017-09-20T02:46:44.583Z,101044.08
2017-09-20T02:49:17.164Z,101045.12
2017-09-20T02:52:51.137Z,101044.42
2017-09-20T02:55:23.127Z,101046.49
2017-09-20T02:57:54.501Z,101053.98
2017-09-20T03:00:26.278Z,101054.50
2017-09-20T03:02:57.343Z,101048.61
2017-09-20T03:05:28.571Z,101049.80
2017-09-20T03:07:59.628Z,101056.34
2017-09-20T03:10:30.701Z,101055.41
2017-09-20T03:13:01.769Z,101054.00
2017-09-20T03:15:34.408Z,101054.09
2017-09-20T03:18:06.330Z,101048.70
2017-09-20T03:20:37.588Z,101054.23
2017-09-20T03:23:08.971Z,101057.33
2017-09-20T03:25:40.077Z,101049.50
2017-09-20T03:28:11.503Z,101049.81
2017-09-20T03:30:43.089Z,101049.91
2017-09-20T03:33:14.156Z,101052.94
2017-09-20T03:35:48.631Z,101051.03
2017-09-20T03:38:20.158Z,101047.94
2017-09-20T03:40:51.307Z,101053.97
2017-09-20T03:43:23.055Z,101061.69
2017-09-20T03:45:54.712Z,101060.42
2017-09-20T03:48:25.782Z,101058.03
2017-09-20T03:50:58.978Z,101057.78
2017-09-20T03:53:30.043Z,101049.11
2017-09-20T03:56:02.070Z,101056.98
2017-09-20T03:58:33.133Z,101053.52
2017-09-20T04:01:04.823Z,101049.67
2017-09-20T04:03:35.922Z,101049.75
2017-09-20T04:06:07.008Z,101052.79
2017-09-20T04:08:38.359Z,101051.07
2017-09-20T04:11:09.411Z,101050.93
2017-09-20T04:13:40.488Z,101049.28
2017-09-20T04:16:11.909Z,101052.88
2017-09-20T04:18:43.097Z,101054.66
2017-09-20T04:21:14.403Z,101060.53
2017-09-20T04:23:46.158Z,101063.67
2017-09-20T04:26:17.294Z,101065.62
2017-09-20T04:28:49.008Z,101069.34
2017-09-20T04:31:21.436Z,101077.87
2017-09-20T04:33:52.569Z,101081.39
2017-09-20T04:36:23.789Z,101084.85
2017-09-20T04:38:55.152Z,101086.44
2017-09-20T04:41:26.565Z,101082.84
2017-09-20T04:43:57.737Z,101084.24
2017-09-20T04:46:28.986Z,101083.16
2017-09-20T04:49:00.065Z,101082.78
2017-09-20T04:51:31.723Z,101087.63
2017-09-20T04:54:03.395Z,101094.53
2017-09-20T04:56:34.627Z,101099.57
2017-09-20T04:59:05.685Z,101100.09
2017-09-20T05:01:37.124Z,101100.75
2017-09-20T05:04:08.209Z,101094.86
2017-09-20T05:06:39.604Z,101103.68
2017-09-20T05:09:10.685Z,101101.45
2017-09-20T05:11:42.126Z,101107.81
2017-09-20T05:14:13.220Z,101110.06
2017-09-20T05:16:45.011Z,101108.75
2017-09-20T05:19:16.204Z,101115.80
2017-09-20T05:21:49.289Z,101120.77
2017-09-20T05:24:20.641Z,101119.22
2017-09-20T05:26:51.822Z,101116.95
2017-09-20T05:29:22.911Z,101122.19
2017-09-20T05:32:03.780Z,101124.36
2017-09-20T05:34:35.042Z,101122.47
2017-09-20T05:37:06.773Z,101121.28
2017-09-20T05:39:37.893Z,101125.69
2017-09-20T05:42:10.016Z,101118.98
2017-09-20T05:44:41.112Z,101114.00
2017-09-20T05:47:12.662Z,101112.39
2017-09-20T05:49:44.041Z,101115.50
2017-09-20T05:52:17.497Z,101115.12
2017-09-20T05:54:50.498Z,101121.22
2017-09-20T05:57:23.503Z,101116.44
2017-09-20T05:59:57.673Z,101115.84
2017-09-20T06:02:28.917Z,101107.15
2017-09-20T06:04:59.969Z,101105.47
2017-09-20T06:07:31.319Z,101100.27
2017-09-20T06:10:03.739Z,101103.88
2017-09-20T06:12:34.921Z,101112.03
2017-09-20T06:15:06.300Z,101129.48
2017-09-20T06:17:37.461Z,101131.60
2017-09-20T06:20:08.571Z,101129.65
2017-09-20T06:22:40.108Z,101133.66
2017-09-20T06:25:11.203Z,101129.73
2017-09-20T06:27:42.306Z,101131.28
2017-09-20T06:30:14.742Z,101133.44
2017-09-20T06:32:46.822Z,101136.18
2017-09-20T06:35:17.904Z,101146.27
2017-09-20T06:37:49.937Z,101152.67
2017-09-20T06:40:21.384Z,101158.31
2017-09-20T06:42:52.576Z,101155.36
2017-09-20T06:45:23.946Z,101154.91
2017-09-20T06:47:55.431Z,101156.02
2017-09-20T06:50:27.032Z,101155.91
2017-09-20T06:52:58.591Z,101161.92
2017-09-20T06:55:29.863Z,101165.80
2017-09-20T06:58:01.251Z,101166.56
2017-09-20T07:00:33.461Z,101156.45
2017-09-20T07:03:05.647Z,101159.91
2017-09-20T07:05:36.754Z,101152.89
2017-09-20T07:08:07.859Z,101155.20
2017-09-20T07:10:38.996Z,101163.70
2017-09-20T07:13:10.148Z,101162.13
2017-09-20T07:15:41.532Z,101166.58
2017-09-20T07:18:14.203Z,101179.61
2017-09-20T07:20:45.463Z,101171.34
2017-09-20T07:23:16.691Z,101171.94
2017-09-20T07:25:48.660Z,101177.14
2017-09-20T07:28:20.346Z,101185.22
2017-09-20T07:30:51.445Z,101187.22
2017-09-20T07:33:22.743Z,101182.42
2017-09-20T07:35:54.121Z,101190.53
2017-09-20T07:38:25.586Z,101188.32
2017-09-20T07:40:56.695Z,101189.80
2017-09-20T07:43:28.554Z,101189.05
2017-09-20T07:45:59.608Z,101189.09
2017-09-20T07:48:30.676Z,101191.64
2017-09-20T07:51:03.051Z,101192.71
2017-09-20T07:54:37.269Z,101198.33
2017-09-20T07:57:08.406Z,101194.06
2017-09-20T07:59:40.055Z,101192.06
2017-09-20T08:02:12.113Z,101185.65
2017-09-20T08:04:43.376Z,101187.70
2017-09-20T08:07:15.162Z,101184.36
2017-09-20T08:09:47.565Z,101187.49
2017-09-20T08:12:18.848Z,101190.12
2017-09-20T08:14:53.339Z,101188.55
2017-09-20T08:17:28.408Z,101187.05
2017-09-20T08:20:03.577Z,101182.47
2017-09-20T08:22:34.987Z,101173.38
2017-09-20T08:25:07.329Z,101174.70
2017-09-20T08:27:39.095Z,101180.33
2017-09-20T08:30:10.565Z,101175.39
2017-09-20T08:32:41.625Z,101175.94
2017-09-20T08:35:13.115Z,101179.84
2017-09-20T08:40:51.470Z,101183.19
2017-09-20T08:43:25.369Z,101184.16
2017-09-20T08:45:56.819Z,101183.88
2017-09-20T08:48:29.436Z,101182.09
2017-09-20T08:51:00.582Z,101174.09
2017-09-20T08:53:34.963Z,101180.91
2017-09-20T08:56:11.212Z,101181.95
2017-09-20T08:58:44.950Z,101183.63
2017-09-20T09:01:17.665Z,101187.28
2017-09-20T09:03:52.213Z,101188.64
2017-09-20T09:06:25.169Z,101187.25
2017-09-20T09:08:58.656Z,101189.84
2017-09-20T09:14:28.806Z,101185.84
2017-09-20T09:17:00.289Z,101193.59
2017-09-20T09:19:32.246Z,101189.03
2017-09-20T09:22:04.832Z,101173.58
2017-09-20T09:24:36.265Z,101179.13
2017-09-20T09:27:07.375Z,101169.63
2017-09-20T09:29:38.571Z,101171.05
2017-09-20T09:32:12.193Z,101167.88
2017-09-20T09:34:47.048Z,101169.19
2017-09-20T09:37:18.540Z,101171.23
2017-09-20T09:39:51.433Z,101175.67
2017-09-20T09:42:22.817Z,101178.98
2017-09-20T09:44:54.289Z,101177.08
2017-09-20T09:47:25.417Z,101172.37
2017-09-20T09:49:56.788Z,101174.84
2017-09-20T09:52:27.898Z,101165.01
2017-09-20T09:54:58.988Z,101165.33
2017-09-20T09:57:30.100Z,101164.23
2017-09-20T10:00:02.762Z,101169.37
2017-09-20T10:02:34.248Z,101179.60
2017-09-20T10:05:07.229Z,101179.36
2017-09-20T10:07:40.587Z,101169.47
2017-09-20T10:10:16.841Z,101169.95
2017-09-20T10:12:48.504Z,101167.57
2017-09-20T10:15:19.941Z,101162.42
2017-09-20T10:17:51.124Z,101151.96
2017-09-20T10:20:22.332Z,101149.95
2017-09-20T10:22:53.740Z,101142.49
2017-09-20T10:25:24.829Z,101139.92
2017-09-20T10:27:55.981Z,101143.28
2017-09-20T10:30:27.453Z,101128.05
2017-09-20T10:32:58.635Z,101130.47
2017-09-20T10:35:33.111Z,101142.91
2017-09-20T10:38:08.066Z,101144.40
2017-09-20T10:43:38.493Z,101133.72
2017-09-20T10:46:12.389Z,101130.34
2017-09-20T10:48:43.569Z,101127.63
2017-09-20T10:51:16.894Z,101135.46
2017-09-20T10:56:53.329Z,101156.27
2017-09-20T10:59:24.540Z,101153.19
2017-09-20T11:01:57.194Z,101148.37
2017-09-20T11:04:29.348Z,101143.50
2017-09-20T11:07:00.545Z,101144.27
2017-09-20T11:09:32.969Z,101140.64
2017-09-20T11:12:04.961Z,101145.30
2017-09-20T11:14:36.555Z,101150.80
2017-09-20T11:17:08.072Z,101148.23
2017-09-20T11:19:39.463Z,101144.02
2017-09-20T11:22:12.332Z,101130.99
2017-09-20T11:27:56.007Z,101126.27
2017-09-20T11:30:30.456Z,101124.38
2017-09-20T11:33:06.440Z,101120.01
2017-09-20T11:35:46.622Z,101112.42
2017-09-20T11:38:23.817Z,101106.59
2017-09-20T11:41:05.688Z,101108.34
2017-09-20T11:43:38.271Z,101094.18
2017-09-20T11:46:10.091Z,101101.30
2017-09-20T11:48:41.247Z,101096.08
2017-09-20T11:51:12.311Z,101091.65
2017-09-20T11:53:44.252Z,101097.59
2017-09-20T11:56:15.369Z,101083.52
2017-09-20T11:58:46.685Z,101089.62
2017-09-20T12:01:21.590Z,101086.83
2017-09-20T12:03:53.075Z,101091.25
2017-09-20T12:06:28.646Z,101084.44
2017-09-20T12:09:00.197Z,101075.67
2017-09-20T12:11:44.424Z,101074.09
2017-09-20T12:14:20.320Z,101078.72
2017-09-20T12:19:57.329Z,101077.73
2017-09-20T12:22:32.933Z,101074.73
2017-09-20T12:25:05.769Z,101064.22
2017-09-20T12:27:37.525Z,101054.15
2017-09-20T12:30:09.136Z,101057.55
2017-09-20T12:32:40.279Z,101060.22
2017-09-20T12:35:17.421Z,101061.11
2017-09-20T12:37:48.470Z,101062.32
2017-09-20T12:40:19.751Z,101061.96
2017-09-20T12:42:50.925Z,101060.05
2017-09-20T12:45:28.595Z,101054.08
2017-09-20T12:51:06.751Z,101043.91
2017-09-20T12:53:38.333Z,101047.61
2017-09-20T12:56:09.613Z,101051.23
2017-09-20T12:58:41.507Z,101056.51
2017-09-20T13:01:13.563Z,101055.65
2017-09-20T13:03:46.238Z,101065.05
2017-09-20T13:06:17.390Z,101062.40
2017-09-20T13:08:48.671Z,101062.99
2017-09-20T13:11:21.106Z,101067.84
2017-09-20T13:13:52.654Z,101071.05
2017-09-20T13:16:26.274Z,101070.28
2017-09-20T13:18:57.629Z,101067.80
2017-09-20T13:21:29.467Z,101068.63
2017-09-20T13:24:02.190Z,101065.48
2017-09-20T13:26:33.493Z,101066.05
2017-09-20T13:29:06.926Z,101061.48
2017-09-20T13:31:38.656Z,101055.36
2017-09-20T13:34:09.851Z,101056.17
2017-09-20T13:36:41.038Z,101024.39
2017-09-20T13:39:12.510Z,101028.93
2017-09-20T13:41:43.596Z,101023.69
2017-09-20T13:44:14.821Z,101030.01
2017-09-20T13:46:46.277Z,101036.09
2017-09-20T13:49:17.469Z,101052.46
2017-09-20T13:51:48.855Z,101044.42
2017-09-20T13:54:19.968Z,101041.96
2017-09-20T13:56:51.077Z,101038.70
2017-09-20T13:59:22.453Z,101040.89
2017-09-20T14:01:53.860Z,101028.56
2017-09-20T14:04:26.826Z,101029.37
2017-09-20T14:06:58.405Z,101031.89
2017-09-20T14:09:30.034Z,101037.49
2017-09-20T14:12:02.420Z,101028.94
2017-09-20T14:14:33.515Z,101011.15
2017-09-20T14:17:04.980Z,101012.50
2017-09-20T14:19:36.057Z,101011.30
2017-09-20T14:22:07.140Z,101004.87
2017-09-20T14:24:38.509Z,101006.18
2017-09-20T14:27:09.833Z,101008.80
2017-09-20T14:29:40.915Z,101010.33
2017-09-20T14:32:12.790Z,101006.27
2017-09-20T14:34:44.154Z,101011.23
2017-09-20T14:37:15.577Z,101011.02
2017-09-20T14:39:46.782Z,101007.96
2017-09-20T14:42:18.138Z,101006.05
2017-09-20T14:44:49.774Z,101012.77
2017-09-20T14:47:21.077Z,101009.84
2017-09-20T14:49:52.217Z,101016.80
2017-09-20T14:52:24.315Z,101019.38
2017-09-20T14:54:55.735Z,101014.54
2017-09-20T14:57:28.840Z,101014.31
2017-09-20T15:00:00.147Z,101021.31
2017-09-20T15:02:31.717Z,101025.49
2017-09-20T15:05:03.424Z,101022.50
2017-09-20T15:07:34.567Z,101025.60
2017-09-20T15:10:06.179Z,101026.25
2017-09-20T15:12:37.228Z,101020.97
2017-09-20T15:15:08.391Z,101020.67
2017-09-20T15:17:39.779Z,101024.52
2017-09-20T15:20:11.026Z,101030.98
2017-09-20T15:22:42.462Z,101037.30
2017-09-20T15:25:13.891Z,101038.28
2017-09-20T15:27:47.854Z,101043.80
2017-09-20T15:30:19.294Z,101051.38
2017-09-20T15:32:51.031Z,101041.50
2017-09-20T15:35:22.098Z,101053.29
2017-09-20T15:39:24.985Z,101051.48
2017-09-20T15:41:56.187Z,101049.44
2017-09-20T15:44:30.212Z,101049.92
2017-09-20T15:47:01.427Z,101048.34
2017-09-20T15:49:32.919Z,101038.59
2017-09-20T15:52:05.595Z,101034.14
2017-09-20T15:54:38.224Z,101030.09
2017-09-20T15:57:10.018Z,101027.08
2017-09-20T15:59:46.458Z,101030.82
2017-09-20T16:02:17.954Z,101032.12
2017-09-20T16:04:49.161Z,101034.02
2017-09-20T16:07:20.287Z,101032.09
2017-09-20T16:12:12.427Z,101037.13
2017-09-20T16:17:48.912Z,101046.22
2017-09-20T16:20:22.415Z,101040.83
2017-09-20T16:22:53.500Z,101041.25
2017-09-20T16:25:25.023Z,101044.78
2017-09-20T16:27:56.564Z,101040.28
2017-09-20T16:30:28.172Z,101039.70
2017-09-20T16:32:59.314Z,101039.81
2017-09-20T16:35:30.413Z,101041.25
2017-09-20T16:38:03.274Z,101043.13
2017-09-20T16:43:39.836Z,101059.44
2017-09-20T16:46:12.165Z,101058.22
2017-09-20T16:51:48.529Z,101056.89
2017-09-20T16:54:23.912Z,101059.39
2017-09-20T16:56:56.727Z,101062.73
2017-09-20T16:59:28.271Z,101065.12
2017-09-20T17:01:59.630Z,101069.12
2017-09-20T17:07:30.659Z,101067.64
2017-09-20T17:10:06.406Z,101067.94
2017-09-20T17:12:37.887Z,101072.55
2017-09-20T17:15:31.430Z,101072.88
2017-09-20T17:18:05.102Z,101074.86
2017-09-20T17:23:41.594Z,101069.74
2017-09-20T17:26:12.785Z,101077.51
2017-09-20T17:28:44.058Z,101078.31
2017-09-20T17:31:15.892Z,101080.13
2017-09-20T17:33:47.234Z,101083.02
2017-09-20T17:36:18.366Z,101091.30
2017-09-20T17:38:49.719Z,101087.03
2017-09-20T17:41:24.116Z,101101.27
2017-09-20T17:43:55.229Z,101097.66
2017-09-20T17:46:27.560Z,101100.25
2017-09-20T17:48:58.998Z,101104.98
2017-09-20T17:51:30.458Z,101108.37
2017-09-20T17:54:03.193Z,101103.83
2017-09-20T17:56:34.300Z,101113.25
2017-09-20T17:59:06.043Z,101117.08
2017-09-20T18:01:37.434Z,101120.89
2017-09-20T18:04:08.684Z,101115.05
2017-09-20T18:06:40.129Z,101121.16
2017-09-20T18:09:12.156Z,101118.37
2017-09-20T18:11:43.329Z,101127.66
2017-09-20T18:14:14.894Z,101127.97
2017-09-20T18:16:45.977Z,101134.36
2017-09-20T18:19:17.295Z,101135.89
2017-09-20T18:21:48.339Z,101134.47
2017-09-20T18:24:20.331Z,101141.53
2017-09-20T18:26:51.423Z,101140.20
2017-09-20T18:29:23.412Z,101148.02
2017-09-20T18:31:54.524Z,101144.28
2017-09-20T18:34:26.594Z,101141.90
2017-09-20T18:36:57.739Z,101137.86
2017-09-20T18:39:28.874Z,101140.80
2017-09-20T18:41:59.933Z,101143.67
2017-09-20T18:44:31.437Z,101142.93
2017-09-20T18:47:02.910Z,101147.95
2017-09-20T18:49:34.575Z,101147.58
2017-09-20T18:52:06.491Z,101141.66
2017-09-20T18:54:39.623Z,101144.96
2017-09-20T18:57:10.712Z,101146.50
2017-09-20T18:59:42.105Z,101146.16
2017-09-20T19:02:13.153Z,101148.71
2017-09-20T19:04:44.305Z,101147.48
2017-09-20T19:07:15.355Z,101150.22
2017-09-20T19:09:46.459Z,101146.26
2017-09-20T19:12:17.481Z,101150.41
2017-09-20T19:14:49.050Z,101146.97
2017-09-20T19:17:20.835Z,101150.72
2017-09-20T19:19:52.295Z,101153.89
2017-09-20T19:22:24.868Z,101156.81
2017-09-20T19:24:56.303Z,101151.31
2017-09-20T19:27:27.885Z,101152.42
2017-09-20T19:29:59.311Z,101152.97
2017-09-20T19:32:58.601Z,101154.08
2017-09-20T19:35:30.283Z,101152.23
2017-09-20T19:38:02.393Z,101150.57
2017-09-20T19:40:34.063Z,101155.45
2017-09-20T19:43:05.811Z,101153.36
2017-09-20T19:45:37.568Z,101147.19
2017-09-20T19:48:08.919Z,101155.69
2017-09-20T19:50:45.293Z,101153.59
2017-09-20T19:53:18.162Z,101150.19
2017-09-20T19:55:53.345Z,101152.92
2017-09-20T19:58:27.581Z,101154.23
2017-09-20T20:03:41.258Z,101155.87
2017-09-20T20:06:12.662Z,101152.92
2017-09-20T20:08:43.852Z,101155.25
2017-09-20T20:11:15.261Z,101156.26
2017-09-20T20:13:46.416Z,101155.41
2017-09-20T20:16:18.347Z,101156.16
2017-09-20T20:18:51.343Z,101155.16
2017-09-20T20:21:24.567Z,101154.50
2017-09-20T20:23:56.018Z,101157.08
2017-09-20T20:26:29.490Z,101163.13
2017-09-20T20:29:00.967Z,101162.81
2017-09-20T20:31:33.245Z,101171.80
2017-09-20T20:34:06.175Z,101169.55
2017-09-20T20:38:06.890Z,101170.09
2017-09-20T20:40:37.961Z,101170.05
2017-09-20T20:43:09.378Z,101173.69
2017-09-20T20:45:40.515Z,101168.66
2017-09-20T20:48:11.863Z,101166.28
2017-09-20T20:50:44.223Z,101168.61
2017-09-20T20:53:15.374Z,101168.41
2017-09-20T20:55:46.476Z,101169.29
2017-09-20T20:58:18.018Z,101165.51
2017-09-20T21:00:49.130Z,101164.67
2017-09-20T21:03:20.314Z,101158.71
2017-09-20T21:05:51.510Z,101168.48
2017-09-20T21:08:24.696Z,101165.64
2017-09-20T21:10:56.220Z,101170.56
2017-09-20T21:13:28.671Z,101169.77
2017-09-20T21:16:00.120Z,101175.63
2017-09-20T21:18:38.704Z,101176.14
2017-09-20T21:21:13.636Z,101176.36
2017-09-20T21:23:54.178Z,101179.99
2017-09-20T21:29:42.578Z,101176.45
2017-09-20T21:35:15.573Z,101173.77
2017-09-20T21:37:46.648Z,101175.19
2017-09-20T21:40:18.191Z,101178.63
2017-09-20T21:42:49.556Z,101171.38
2017-09-20T21:45:20.820Z,101174.95
2017-09-20T21:47:51.904Z,101176.37
2017-09-20T21:50:23.141Z,101179.60
2017-09-20T21:52:54.566Z,101182.51
2017-09-20T21:55:27.513Z,101179.55
2017-09-20T21:57:58.689Z,101179.66
2017-09-20T22:00:31.203Z,101184.47
2017-09-20T22:03:03.670Z,101180.65
2017-09-20T22:05:35.604Z,101178.94
2017-09-20T22:08:07.797Z,101173.91
2017-09-20T22:10:38.924Z,101177.16
2017-09-20T22:13:10.055Z,101178.58
2017-09-20T22:15:52.256Z,101181.39
2017-09-20T22:18:34.253Z,101185.93
2017-09-20T22:21:16.437Z,101185.15
2017-09-20T22:23:58.423Z,101185.91
2017-09-20T22:26:40.703Z,101180.42
2017-09-20T22:29:11.841Z,101181.89
2017-09-20T22:31:42.925Z,101185.34
2017-09-20T22:34:14.431Z,101179.69
2017-09-20T22:36:45.563Z,101183.28
2017-09-20T22:39:17.552Z,101185.56
2017-09-20T22:41:49.201Z,101180.75
2017-09-20T22:44:20.294Z,101182.42
2017-09-20T22:46:53.465Z,101188.09
2017-09-20T22:49:28.610Z,101180.86
2017-09-20T22:52:01.034Z,101187.46
2017-09-20T22:57:32.137Z,101182.37
2017-09-20T23:00:04.285Z,101179.39
2017-09-20T23:02:35.781Z,101174.98
2017-09-20T23:05:06.942Z,101171.14
2017-09-20T23:07:38.352Z,101171.27
2017-09-20T23:10:10.387Z,101171.38
2017-09-20T23:12:41.538Z,101171.38
2017-09-20T23:15:12.975Z,101175.73
2017-09-20T23:17:44.036Z,101170.39
2017-09-20T23:20:15.163Z,101181.33
2017-09-20T23:22:46.569Z,101180.48
2017-09-20T23:25:18.731Z,101175.75
2017-09-20T23:27:50.311Z,101177.07
2017-09-20T23:30:23.330Z,101175.42
2017-09-20T23:32:54.412Z,101176.55
2017-09-20T23:35:27.177Z,101172.67
2017-09-20T23:37:58.252Z,101171.86
2017-09-20T23:40:29.315Z,101177.18
2017-09-20T23:43:01.595Z,101164.55
2017-09-20T23:45:32.836Z,101166.05
2017-09-20T23:48:05.162Z,101170.14
2017-09-20T23:50:36.633Z,101166.73
2017-09-20T23:53:09.091Z,101171.20
2017-09-20T23:55:40.486Z,101167.79
2017-09-20T23:58:12.894Z,101173.58
